Terminal Aerodrome Forecast
Issued by NWS

Home | Current Version | Previous Version | Text Only | Print | Product List | Glossary On
Versions: 1 2 3 4 5 6 7 8 9 10 11 12 13 14 15 16 17 18 19 20
000
FTAK31 PAJN 231128
TAFAPG
TAF
PAPG 231128Z 2312/2412 26003KT 5SM -SN BR SCT005 OVC015
      TEMPO 2312/2316 3SM -SN BKN004 OVC014
     FM231900 09004KT 6SM -RASN BKN020 OVC035
     FM240300 12005KT 3SM -SNRA BR BKN015 OVC025
      AMD LTD TO CLD VIS AND WIND 2312/2315=

USA.gov is the U.S. government's official web portal to all federal, state and local government web resources and services.